sensor_id;sensor_type;location;lat;lon;timestamp;pressure;altitude;pressure_sealevel;temperature;humidity
48553;BME280;34335;51.566;6.994;2024-01-06T00:00:17;99669.47;;;5.33;100.00
48553;BME280;34335;51.566;6.994;2024-01-06T00:02:43;99663.44;;;5.34;100.00
48553;BME280;34335;51.566;6.994;2024-01-06T00:05:08;99664.28;;;5.33;100.00
48553;BME280;34335;51.566;6.994;2024-01-06T00:07:33;99664.28;;;5.35;100.00
48553;BME280;34335;51.566;6.994;2024-01-06T00:09:59;99671.16;;;5.31;100.00
48553;BME280;34335;51.566;6.994;2024-01-06T00:12:24;99673.72;;;5.26;100.00
48553;BME280;34335;51.566;6.994;2024-01-06T00:14:49;99675.47;;;5.30;100.00
48553;BME280;34335;51.566;6.994;2024-01-06T00:17:16;99676.28;;;5.26;100.00
48553;BME280;34335;51.566;6.994;2024-01-06T00:19:41;99678.91;;;5.29;100.00
48553;BME280;34335;51.566;6.994;2024-01-06T00:22:06;99689.22;;;5.36;100.00
48553;BME280;34335;51.566;6.994;2024-01-06T00:24:32;99684.06;;;5.34;100.00
48553;BME280;34335;51.566;6.994;2024-01-06T00:26:57;99682.34;;;5.35;100.00
48553;BME280;34335;51.566;6.994;2024-01-06T00:29:22;99681.50;;;5.33;100.00
48553;BME280;34335;51.566;6.994;2024-01-06T00:31:48;99681.47;;;5.28;100.00
48553;BME280;34335;51.566;6.994;2024-01-06T00:34:13;99682.34;;;5.33;100.00
48553;BME280;34335;51.566;6.994;2024-01-06T00:36:38;99696.94;;;5.31;100.00
48553;BME280;34335;51.566;6.994;2024-01-06T00:39:04;99699.53;;;5.31;100.00
48553;BME280;34335;51.566;6.994;2024-01-06T00:41:29;99694.38;;;5.29;100.00
48553;BME280;34335;51.566;6.994;2024-01-06T00:43:55;99696.09;;;5.29;100.00
48553;BME280;34335;51.566;6.994;2024-01-06T00:46:20;99697.84;;;5.36;100.00
48553;BME280;34335;51.566;6.994;2024-01-06T00:48:45;99702.94;;;5.28;100.00
48553;BME280;34335;51.566;6.994;2024-01-06T00:51:11;99702.94;;;5.27;100.00
48553;BME280;34335;51.566;6.994;2024-01-06T00:53:36;99700.41;;;5.38;100.00
48553;BME280;34335;51.566;6.994;2024-01-06T00:56:02;99704.66;;;5.26;100.00
48553;BME280;34335;51.566;6.994;2024-01-06T00:58:27;99714.16;;;5.34;100.00
48553;BME280;34335;51.566;6.994;2024-01-06T01:00:53;99718.47;;;5.38;100.00
48553;BME280;34335;51.566;6.994;2024-01-06T01:03:18;99720.16;;;5.34;100.00
48553;BME280;34335;51.566;6.994;2024-01-06T01:05:43;99719.31;;;5.37;100.00
48553;BME280;34335;51.566;6.994;2024-01-06T01:08:09;99722.72;;;5.29;100.00
48553;BME280;34335;51.566;6.994;2024-01-06T01:10:34;99727.06;;;5.34;100.00
48553;BME280;34335;51.566;6.994;2024-01-06T01:12:59;99726.16;;;5.35;100.00
48553;BME280;34335;51.566;6.994;2024-01-06T01:15:25;99721.03;;;5.33;100.00
48553;BME280;34335;51.566;6.994;2024-01-06T01:17:50;99721.00;;;5.28;100.00
48553;BME280;34335;51.566;6.994;2024-01-06T01:20:15;99733.91;;;5.35;100.00
48553;BME280;34335;51.566;6.994;2024-01-06T01:22:41;99728.75;;;5.35;100.00
48553;BME280;34335;51.566;6.994;2024-01-06T01:25:06;99728.75;;;5.33;100.00
48553;BME280;34335;51.566;6.994;2024-01-06T01:27:34;99733.91;;;5.35;100.00
48553;BME280;34335;51.566;6.994;2024-01-06T01:29:59;99733.09;;;5.37;100.00
48553;BME280;34335;51.566;6.994;2024-01-06T01:32:24;99727.88;;;5.29;100.00
48553;BME280;34335;51.566;6.994;2024-01-06T01:34:50;99730.44;;;5.26;100.00
48553;BME280;34335;51.566;6.994;2024-01-06T01:37:15;99730.44;;;5.26;100.00
48553;BME280;34335;51.566;6.994;2024-01-06T01:39:41;99728.72;;;5.30;100.00
48553;BME280;34335;51.566;6.994;2024-01-06T01:42:06;99737.31;;;5.26;100.00
48553;BME280;34335;51.566;6.994;2024-01-06T01:44:31;99740.75;;;5.23;100.00
48553;BME280;34335;51.566;6.994;2024-01-06T01:46:57;99750.19;;;5.23;100.00
48553;BME280;34335;51.566;6.994;2024-01-06T01:49:23;99765.63;;;5.20;100.00
48553;BME280;34335;51.566;6.994;2024-01-06T01:51:49;99758.78;;;5.23;100.00
48553;BME280;34335;51.566;6.994;2024-01-06T01:54:15;99761.38;;;5.23;100.00
48553;BME280;34335;51.566;6.994;2024-01-06T01:56:41;99763.94;;;5.19;100.00
48553;BME280;34335;51.566;6.994;2024-01-06T01:59:14;99761.34;;;5.19;100.00
48553;BME280;34335;51.566;6.994;2024-01-06T02:01:41;99761.41;;;5.31;100.00
48553;BME280;34335;51.566;6.994;2024-01-06T02:04:08;99764.81;;;5.30;100.00
48553;BME280;34335;51.566;6.994;2024-01-06T02:06:33;99768.25;;;5.27;100.00
48553;BME280;34335;51.566;6.994;2024-01-06T02:08:59;99760.53;;;5.26;100.00
48553;BME280;34335;51.566;6.994;2024-01-06T02:11:24;99770.81;;;5.24;100.00
48553;BME280;34335;51.566;6.994;2024-01-06T02:13:49;99773.38;;;5.21;100.00
48553;BME280;34335;51.566;6.994;2024-01-06T02:16:15;99771.66;;;5.20;100.00
48553;BME280;34335;51.566;6.994;2024-01-06T02:18:40;99774.22;;;5.14;100.00
48553;BME280;34335;51.566;6.994;2024-01-06T02:21:06;99776.75;;;5.12;100.00
48553;BME280;34335;51.566;6.994;2024-01-06T02:23:34;99781.91;;;5.09;100.00
48553;BME280;34335;51.566;6.994;2024-01-06T02:26:00;99782.78;;;5.14;100.00
48553;BME280;34335;51.566;6.994;2024-01-06T02:28:25;99788.75;;;5.09;100.00
48553;BME280;34335;51.566;6.994;2024-01-06T02:30:51;99796.47;;;5.06;100.00
48553;BME280;34335;51.566;6.994;2024-01-06T02:33:16;99790.44;;;5.01;100.00
48553;BME280;34335;51.566;6.994;2024-01-06T02:35:44;99796.50;;;5.09;100.00
48553;BME280;34335;51.566;6.994;2024-01-06T02:38:09;99799.03;;;5.06;100.00
48553;BME280;34335;51.566;6.994;2024-01-06T02:40:35;99804.22;;;5.09;100.00
48553;BME280;34335;51.566;6.994;2024-01-06T02:43:00;99805.75;;;4.82;100.00
48553;BME280;34335;51.566;6.994;2024-01-06T02:45:26;99816.09;;;4.87;100.00
48553;BME280;34335;51.566;6.994;2024-01-06T02:47:51;99824.63;;;4.81;100.00
48553;BME280;34335;51.566;6.994;2024-01-06T02:50:17;99820.16;;;4.63;100.00
48553;BME280;34335;51.566;6.994;2024-01-06T02:52:42;99822.81;;;4.71;100.00
48553;BME280;34335;51.566;6.994;2024-01-06T02:55:07;99829.66;;;4.65;100.00
48553;BME280;34335;51.566;6.994;2024-01-06T02:57:33;99834.72;;;4.58;100.00
48553;BME280;34335;51.566;6.994;2024-01-06T02:59:58;99829.56;;;4.56;100.00
48553;BME280;34335;51.566;6.994;2024-01-06T03:02:23;99839.84;;;4.53;100.00
48553;BME280;34335;51.566;6.994;2024-01-06T03:04:49;99831.28;;;4.54;100.00
48553;BME280;34335;51.566;6.994;2024-01-06T03:07:14;99849.16;;;4.42;100.00
48553;BME280;34335;51.566;6.994;2024-01-06T03:09:40;99843.31;;;4.58;100.00
48553;BME280;34335;51.566;6.994;2024-01-06T03:12:08;99853.50;;;4.46;100.00
48553;BME280;34335;51.566;6.994;2024-01-06T03:14:37;99848.41;;;4.52;100.00
48553;BME280;34335;51.566;6.994;2024-01-06T03:17:03;99851.13;;;4.67;100.00
48553;BME280;34335;51.566;6.994;2024-01-06T03:19:29;99856.19;;;4.57;100.00
48553;BME280;34335;51.566;6.994;2024-01-06T03:21:55;99870.59;;;4.41;100.00
48553;BME280;34335;51.566;6.994;2024-01-06T03:24:21;99860.47;;;4.56;100.00
48553;BME280;34335;51.566;6.994;2024-01-06T03:26:46;99860.44;;;4.53;100.00
48553;BME280;34335;51.566;6.994;2024-01-06T03:29:12;99854.44;;;4.54;100.00
48553;BME280;34335;51.566;6.994;2024-01-06T03:31:37;99861.88;;;4.28;100.00
48553;BME280;34335;51.566;6.994;2024-01-06T03:34:02;99862.03;;;4.43;100.00
48553;BME280;34335;51.566;6.994;2024-01-06T03:36:28;99867.88;;;4.28;100.00
48553;BME280;34335;51.566;6.994;2024-01-06T03:38:53;99871.34;;;4.30;100.00
48553;BME280;34335;51.566;6.994;2024-01-06T03:41:18;99870.44;;;4.25;100.00
48553;BME280;34335;51.566;6.994;2024-01-06T03:43:44;99873.22;;;4.44;100.00
48553;BME280;34335;51.566;6.994;2024-01-06T03:46:09;99877.38;;;4.32;100.00
48553;BME280;34335;51.566;6.994;2024-01-06T03:48:34;99875.66;;;4.33;100.00
48553;BME280;34335;51.566;6.994;2024-01-06T03:51:00;99889.38;;;4.30;100.00
48553;BME280;34335;51.566;6.994;2024-01-06T03:53:25;99895.03;;;4.01;100.00
48553;BME280;34335;51.566;6.994;2024-01-06T03:55:50;99890.09;;;4.18;100.00
48553;BME280;34335;51.566;6.994;2024-01-06T03:58:17;99900.44;;;4.23;100.00
48553;BME280;34335;51.566;6.994;2024-01-06T04:00:42;99903.91;;;4.28;100.00
48553;BME280;34335;51.566;6.994;2024-01-06T04:03:07;99902.16;;;4.23;100.00
48553;BME280;34335;51.566;6.994;2024-01-06T04:05:34;99904.66;;;4.16;100.00
48553;BME280;34335;51.566;6.994;2024-01-06T04:07:59;99907.34;;;4.26;100.00
48553;BME280;34335;51.566;6.994;2024-01-06T04:10:24;99912.53;;;4.30;100.00
48553;BME280;34335;51.566;6.994;2024-01-06T04:12:49;99917.59;;;4.23;100.00
48553;BME280;34335;51.566;6.994;2024-01-06T04:15:15;99912.28;;;4.09;100.00
48553;BME280;34335;51.566;6.994;2024-01-06T04:17:41;99909.56;;;3.96;100.00
48553;BME280;34335;51.566;6.994;2024-01-06T04:20:06;99917.31;;;4.01;100.00
48553;BME280;34335;51.566;6.994;2024-01-06T04:22:32;99913.97;;;4.07;100.00
48553;BME280;34335;51.566;6.994;2024-01-06T04:24:58;99920.00;;;4.09;100.00
48553;BME280;34335;51.566;6.994;2024-01-06T04:27:23;99920.97;;;4.18;100.00
48553;BME280;34335;51.566;6.994;2024-01-06T04:29:49;99914.00;;;4.10;100.00
48553;BME280;34335;51.566;6.994;2024-01-06T04:32:18;99924.44;;;4.20;100.00
48553;BME280;34335;51.566;6.994;2024-01-06T04:34:43;99919.22;;;4.16;100.00
48553;BME280;34335;51.566;6.994;2024-01-06T04:37:09;99921.81;;;4.16;100.00
48553;BME280;34335;51.566;6.994;2024-01-06T04:39:34;99923.31;;;4.01;100.00
48553;BME280;34335;51.566;6.994;2024-01-06T04:41:59;99928.63;;;4.14;100.00
48553;BME280;34335;51.566;6.994;2024-01-06T04:44:24;99930.31;;;4.09;100.00
48553;BME280;34335;51.566;6.994;2024-01-06T04:46:50;99932.81;;;4.05;100.00
48553;BME280;34335;51.566;6.994;2024-01-06T04:49:15;99931.75;;;3.88;100.00
48553;BME280;34335;51.566;6.994;2024-01-06T04:51:40;99930.09;;;3.93;100.00
48553;BME280;34335;51.566;6.994;2024-01-06T04:54:06;99934.41;;;3.96;100.00
48553;BME280;34335;51.566;6.994;2024-01-06T04:56:31;99937.66;;;3.82;100.00
48553;BME280;34335;51.566;6.994;2024-01-06T04:58:56;99934.06;;;3.72;100.00
48553;BME280;34335;51.566;6.994;2024-01-06T05:01:23;99940.81;;;3.64;100.00
48553;BME280;34335;51.566;6.994;2024-01-06T05:03:48;99942.50;;;3.62;100.00
48553;BME280;34335;51.566;6.994;2024-01-06T05:06:13;99943.31;;;3.59;100.00
48553;BME280;34335;51.566;6.994;2024-01-06T05:08:39;99954.50;;;3.62;100.00
48553;BME280;34335;51.566;6.994;2024-01-06T05:11:09;99955.47;;;3.68;100.00
48553;BME280;34335;51.566;6.994;2024-01-06T05:13:35;99956.31;;;3.67;100.00
48553;BME280;34335;51.566;6.994;2024-01-06T05:16:00;99956.25;;;3.66;100.00
48553;BME280;34335;51.566;6.994;2024-01-06T05:18:25;99957.91;;;3.62;100.00
48553;BME280;34335;51.566;6.994;2024-01-06T05:20:51;99960.75;;;3.81;100.00
48553;BME280;34335;51.566;6.994;2024-01-06T05:23:16;99964.84;;;3.66;100.00
48553;BME280;34335;51.566;6.994;2024-01-06T05:25:42;99963.31;;;3.78;100.00
48553;BME280;34335;51.566;6.994;2024-01-06T05:28:07;99971.09;;;3.82;100.00
48553;BME280;34335;51.566;6.994;2024-01-06T05:30:32;99975.34;;;3.82;100.00
48553;BME280;34335;51.566;6.994;2024-01-06T05:32:57;99973.75;;;3.88;100.00
48553;BME280;34335;51.566;6.994;2024-01-06T05:35:23;99976.38;;;3.93;100.00
48553;BME280;34335;51.566;6.994;2024-01-06T05:37:48;99971.19;;;3.90;100.00
48553;BME280;34335;51.566;6.994;2024-01-06T05:40:13;99979.84;;;3.94;100.00
48553;BME280;34335;51.566;6.994;2024-01-06T05:42:39;99972.72;;;3.77;100.00
48553;BME280;34335;51.566;6.994;2024-01-06T05:45:05;99982.94;;;3.72;100.00
48553;BME280;34335;51.566;6.994;2024-01-06T05:47:31;99984.44;;;3.58;100.00
48553;BME280;34335;51.566;6.994;2024-01-06T05:49:56;99991.41;;;3.65;100.00
48553;BME280;34335;51.566;6.994;2024-01-06T05:52:22;99989.59;;;3.58;100.00
48553;BME280;34335;51.566;6.994;2024-01-06T05:54:48;99991.19;;;3.50;100.00
48553;BME280;34335;51.566;6.994;2024-01-06T05:57:14;100000.34;;;3.35;100.00
48553;BME280;34335;51.566;6.994;2024-01-06T05:59:39;100003.88;;;3.42;100.00
48553;BME280;34335;51.566;6.994;2024-01-06T06:02:05;100003.00;;;3.41;100.00
48553;BME280;34335;51.566;6.994;2024-01-06T06:04:30;100003.94;;;3.45;100.00
48553;BME280;34335;51.566;6.994;2024-01-06T06:06:56;100008.81;;;3.30;100.00
48553;BME280;34335;51.566;6.994;2024-01-06T06:09:21;100009.00;;;3.40;100.00
48553;BME280;34335;51.566;6.994;2024-01-06T06:11:47;100015.66;;;3.29;100.00
48553;BME280;34335;51.566;6.994;2024-01-06T06:14:12;100015.63;;;3.27;100.00
48553;BME280;34335;51.566;6.994;2024-01-06T06:16:38;100023.31;;;3.26;100.00
48553;BME280;34335;51.566;6.994;2024-01-06T06:19:03;100023.28;;;3.24;100.00
48553;BME280;34335;51.566;6.994;2024-01-06T06:21:28;100024.03;;;3.17;100.00
48553;BME280;34335;51.566;6.994;2024-01-06T06:23:54;100026.41;;;3.08;100.00
48553;BME280;34335;51.566;6.994;2024-01-06T06:26:19;100037.56;;;3.08;100.00
48553;BME280;34335;51.566;6.994;2024-01-06T06:28:44;100041.88;;;3.09;100.00
48553;BME280;34335;51.566;6.994;2024-01-06T06:31:09;100049.75;;;3.20;100.00
48553;BME280;34335;51.566;6.994;2024-01-06T06:33:35;100050.75;;;3.27;100.00
48553;BME280;34335;51.566;6.994;2024-01-06T06:36:00;100055.03;;;3.26;100.00
48553;BME280;34335;51.566;6.994;2024-01-06T06:38:26;100071.16;;;3.19;100.00
48553;BME280;34335;51.566;6.994;2024-01-06T06:40:52;100069.28;;;3.10;100.00
48553;BME280;34335;51.566;6.994;2024-01-06T06:43:17;100077.94;;;3.14;100.00
48553;BME280;34335;51.566;6.994;2024-01-06T06:45:42;100079.56;;;3.10;100.00
48553;BME280;34335;51.566;6.994;2024-01-06T06:48:07;100081.34;;;3.15;100.00
48553;BME280;34335;51.566;6.994;2024-01-06T06:50:33;100088.47;;;3.28;100.00
48553;BME280;34335;51.566;6.994;2024-01-06T06:52:59;100093.00;;;2.97;100.00
48553;BME280;34335;51.566;6.994;2024-01-06T06:55:26;100099.22;;;3.08;100.00
48553;BME280;34335;51.566;6.994;2024-01-06T06:57:52;100097.47;;;3.06;100.00
48553;BME280;34335;51.566;6.994;2024-01-06T07:00:18;100101.72;;;3.05;100.00
48553;BME280;34335;51.566;6.994;2024-01-06T07:02:43;100112.22;;;3.16;100.00
48553;BME280;34335;51.566;6.994;2024-01-06T07:05:08;100111.97;;;3.02;100.00
48553;BME280;34335;51.566;6.994;2024-01-06T07:07:34;100116.19;;;3.00;100.00
48553;BME280;34335;51.566;6.994;2024-01-06T07:10:02;100120.31;;;2.93;100.00
48553;BME280;34335;51.566;6.994;2024-01-06T07:12:31;100131.06;;;2.75;100.00
48553;BME280;34335;51.566;6.994;2024-01-06T07:14:57;100132.25;;;2.90;100.00
48553;BME280;34335;51.566;6.994;2024-01-06T07:17:24;100139.03;;;2.86;100.00
48553;BME280;34335;51.566;6.994;2024-01-06T07:19:49;100144.84;;;2.79;100.00
48553;BME280;34335;51.566;6.994;2024-01-06T07:22:14;100148.19;;;2.75;100.00
48553;BME280;34335;51.566;6.994;2024-01-06T07:24:41;100144.91;;;2.82;100.00
48553;BME280;34335;51.566;6.994;2024-01-06T07:27:07;100155.53;;;2.98;100.00
48553;BME280;34335;51.566;6.994;2024-01-06T07:29:32;100151.50;;;2.69;100.00
48553;BME280;34335;51.566;6.994;2024-01-06T07:31:57;100159.28;;;2.72;100.00
48553;BME280;34335;51.566;6.994;2024-01-06T07:34:22;100158.66;;;2.84;100.00
48553;BME280;34335;51.566;6.994;2024-01-06T07:36:48;100168.09;;;2.84;100.00
48553;BME280;34335;51.566;6.994;2024-01-06T07:39:13;100163.81;;;2.86;100.00
48553;BME280;34335;51.566;6.994;2024-01-06T07:41:39;100175.72;;;2.82;100.00
48553;BME280;34335;51.566;6.994;2024-01-06T07:44:04;100173.75;;;2.69;100.00
48553;BME280;34335;51.566;6.994;2024-01-06T07:46:30;100170.09;;;2.60;100.00
48553;BME280;34335;51.566;6.994;2024-01-06T07:48:56;100176.25;;;2.67;100.00
48553;BME280;34335;51.566;6.994;2024-01-06T07:51:21;100176.13;;;2.61;100.00
48553;BME280;34335;51.566;6.994;2024-01-06T07:53:46;100184.75;;;2.64;100.00
48553;BME280;34335;51.566;6.994;2024-01-06T07:56:12;100192.56;;;2.69;100.00
48553;BME280;34335;51.566;6.994;2024-01-06T07:58:37;100200.34;;;2.72;100.00
48553;BME280;34335;51.566;6.994;2024-01-06T08:01:02;100201.94;;;2.67;100.00
48553;BME280;34335;51.566;6.994;2024-01-06T08:03:28;100202.59;;;2.58;100.00
48553;BME280;34335;51.566;6.994;2024-01-06T08:05:53;100203.47;;;2.59;100.00
48553;BME280;34335;51.566;6.994;2024-01-06T08:08:19;100214.75;;;2.65;100.00
48553;BME280;34335;51.566;6.994;2024-01-06T08:10:44;100213.25;;;2.75;100.00
48553;BME280;34335;51.566;6.994;2024-01-06T08:13:10;100219.78;;;2.61;100.00
48553;BME280;34335;51.566;6.994;2024-01-06T08:15:35;100223.59;;;2.78;100.00
48553;BME280;34335;51.566;6.994;2024-01-06T08:18:01;100227.66;;;2.69;100.00
48553;BME280;34335;51.566;6.994;2024-01-06T08:20:26;100226.66;;;3.00;100.00
48553;BME280;34335;51.566;6.994;2024-01-06T08:22:51;100235.00;;;2.91;100.00
48553;BME280;34335;51.566;6.994;2024-01-06T08:25:17;100236.72;;;2.91;100.00
48553;BME280;34335;51.566;6.994;2024-01-06T08:27:43;100242.31;;;2.74;100.00
48553;BME280;34335;51.566;6.994;2024-01-06T08:30:09;100242.47;;;2.80;100.00
48553;BME280;34335;51.566;6.994;2024-01-06T08:32:34;100243.09;;;2.70;100.00
48553;BME280;34335;51.566;6.994;2024-01-06T08:34:59;100242.13;;;3.03;100.00
48553;BME280;34335;51.566;6.994;2024-01-06T08:37:25;100251.72;;;2.72;100.00
48553;BME280;34335;51.566;6.994;2024-01-06T08:39:50;100253.00;;;2.55;100.00
48553;BME280;34335;51.566;6.994;2024-01-06T08:42:15;100259.75;;;2.51;100.00
48553;BME280;34335;51.566;6.994;2024-01-06T08:44:40;100257.03;;;2.45;100.00
48553;BME280;34335;51.566;6.994;2024-01-06T08:47:06;100270.00;;;2.51;100.00
48553;BME280;34335;51.566;6.994;2024-01-06T08:49:31;100276.78;;;2.47;100.00
48553;BME280;34335;51.566;6.994;2024-01-06T08:51:57;100274.41;;;2.55;100.00
48553;BME280;34335;51.566;6.994;2024-01-06T08:54:22;100286.19;;;2.47;100.00
48553;BME280;34335;51.566;6.994;2024-01-06T08:56:48;100290.38;;;2.43;100.00
48553;BME280;34335;51.566;6.994;2024-01-06T08:59:13;100291.22;;;2.44;100.00
48553;BME280;34335;51.566;6.994;2024-01-06T09:01:38;100298.19;;;2.48;100.00
48553;BME280;34335;51.566;6.994;2024-01-06T09:04:04;100299.63;;;2.38;100.00
48553;BME280;34335;51.566;6.994;2024-01-06T09:06:29;100314.56;;;2.53;100.00
48553;BME280;34335;51.566;6.994;2024-01-06T09:08:54;100307.91;;;2.60;100.00
48553;BME280;34335;51.566;6.994;2024-01-06T09:11:19;100314.28;;;2.76;100.00
48553;BME280;34335;51.566;6.994;2024-01-06T09:13:45;100321.03;;;2.72;100.00
48553;BME280;34335;51.566;6.994;2024-01-06T09:16:10;100325.13;;;2.64;100.00
48553;BME280;34335;51.566;6.994;2024-01-06T09:18:36;100331.69;;;2.53;100.00
48553;BME280;34335;51.566;6.994;2024-01-06T09:21:01;100336.69;;;2.48;100.00
48553;BME280;34335;51.566;6.994;2024-01-06T09:23:27;100339.63;;;2.30;100.00
48553;BME280;34335;51.566;6.994;2024-01-06T09:25:52;100340.31;;;2.23;100.00
48553;BME280;34335;51.566;6.994;2024-01-06T09:28:18;100346.03;;;2.44;100.00
48553;BME280;34335;51.566;6.994;2024-01-06T09:30:43;100345.00;;;2.39;100.00
48553;BME280;34335;51.566;6.994;2024-01-06T09:33:09;100347.22;;;2.25;100.00
48553;BME280;34335;51.566;6.994;2024-01-06T09:35:34;100356.88;;;2.34;100.00
48553;BME280;34335;51.566;6.994;2024-01-06T09:38:00;100360.78;;;2.21;100.00
48553;BME280;34335;51.566;6.994;2024-01-06T09:40:25;100365.19;;;2.27;100.00
48553;BME280;34335;51.566;6.994;2024-01-06T09:42:51;100374.31;;;2.47;100.00
48553;BME280;34335;51.566;6.994;2024-01-06T09:45:18;100377.56;;;2.40;100.00
48553;BME280;34335;51.566;6.994;2024-01-06T09:47:49;100370.91;;;2.48;100.00
48553;BME280;34335;51.566;6.994;2024-01-06T09:50:17;100382.09;;;2.18;100.00
48553;BME280;34335;51.566;6.994;2024-01-06T09:52:46;100375.47;;;1.96;100.00
48553;BME280;34335;51.566;6.994;2024-01-06T09:55:23;100378.44;;;2.10;100.00
48553;BME280;34335;51.566;6.994;2024-01-06T09:57:49;100383.38;;;2.34;100.00
48553;BME280;34335;51.566;6.994;2024-01-06T10:00:15;100383.00;;;2.21;100.00
48553;BME280;34335;51.566;6.994;2024-01-06T10:02:41;100393.94;;;2.13;100.00
48553;BME280;34335;51.566;6.994;2024-01-06T10:05:08;100389.00;;;1.91;100.00
48553;BME280;34335;51.566;6.994;2024-01-06T10:07:35;100385.47;;;1.87;100.00
48553;BME280;34335;51.566;6.994;2024-01-06T10:10:00;100390.16;;;2.00;100.00
48553;BME280;34335;51.566;6.994;2024-01-06T10:12:25;100394.31;;;2.27;100.00
48553;BME280;34335;51.566;6.994;2024-01-06T10:14:52;100401.31;;;2.33;100.00
48553;BME280;34335;51.566;6.994;2024-01-06T10:17:17;100414.84;;;2.27;100.00
48553;BME280;34335;51.566;6.994;2024-01-06T10:19:46;100412.69;;;2.11;100.00
48553;BME280;34335;51.566;6.994;2024-01-06T10:22:13;100414.53;;;2.16;100.00
48553;BME280;34335;51.566;6.994;2024-01-06T10:24:38;100423.28;;;1.94;100.00
48553;BME280;34335;51.566;6.994;2024-01-06T10:27:04;100414.97;;;2.01;100.00
48553;BME280;34335;51.566;6.994;2024-01-06T10:29:29;100425.81;;;1.93;100.00
48553;BME280;34335;51.566;6.994;2024-01-06T10:31:54;100417.06;;;2.15;100.00
48553;BME280;34335;51.566;6.994;2024-01-06T10:34:21;100420.97;;;2.32;100.00
48553;BME280;34335;51.566;6.994;2024-01-06T10:36:46;100421.25;;;1.82;100.00
48553;BME280;34335;51.566;6.994;2024-01-06T10:39:13;100424.44;;;2.04;100.00
48553;BME280;34335;51.566;6.994;2024-01-06T10:41:40;100422.81;;;2.06;100.00
48553;BME280;34335;51.566;6.994;2024-01-06T10:44:07;100431.13;;;1.99;100.00
48553;BME280;34335;51.566;6.994;2024-01-06T10:46:34;100422.34;;;1.91;100.00
48553;BME280;34335;51.566;6.994;2024-01-06T10:49:01;100429.31;;;1.95;100.00
48553;BME280;34335;51.566;6.994;2024-01-06T10:51:28;100431.66;;;1.89;100.00
48553;BME280;34335;51.566;6.994;2024-01-06T10:53:57;100425.81;;;1.93;100.00
48553;BME280;34335;51.566;6.994;2024-01-06T10:56:23;100430.69;;;1.83;100.00
48553;BME280;34335;51.566;6.994;2024-01-06T10:58:50;100431.31;;;1.76;100.00
48553;BME280;34335;51.566;6.994;2024-01-06T11:01:20;100429.94;;;1.59;100.00
48553;BME280;34335;51.566;6.994;2024-01-06T11:03:47;100432.31;;;1.54;100.00
48553;BME280;34335;51.566;6.994;2024-01-06T11:06:13;100425.34;;;1.48;100.00
48553;BME280;34335;51.566;6.994;2024-01-06T11:08:48;100427.97;;;1.51;100.00
48553;BME280;34335;51.566;6.994;2024-01-06T11:11:21;100430.41;;;1.47;100.00
48553;BME280;34335;51.566;6.994;2024-01-06T11:13:46;100438.81;;;1.70;100.00
48553;BME280;34335;51.566;6.994;2024-01-06T11:16:33;100439.59;;;1.67;100.00
48553;BME280;34335;51.566;6.994;2024-01-06T11:18:59;100445.44;;;1.36;100.00
48553;BME280;34335;51.566;6.994;2024-01-06T11:21:24;100429.63;;;1.49;100.00
48553;BME280;34335;51.566;6.994;2024-01-06T11:24:13;100444.69;;;1.40;100.00
48553;BME280;34335;51.566;6.994;2024-01-06T11:26:44;100443.81;;;1.38;100.00
48553;BME280;34335;51.566;6.994;2024-01-06T11:29:10;100440.78;;;1.51;100.00
48553;BME280;34335;51.566;6.994;2024-01-06T11:31:37;100449.28;;;1.76;100.00
48553;BME280;34335;51.566;6.994;2024-01-06T11:34:15;100442.19;;;1.69;100.00
48553;BME280;34335;51.566;6.994;2024-01-06T11:36:43;100447.00;;;1.58;100.00
48553;BME280;34335;51.566;6.994;2024-01-06T11:39:33;100437.06;;;1.69;100.00
48553;BME280;34335;51.566;6.994;2024-01-06T11:41:59;100438.38;;;1.56;100.00
48553;BME280;34335;51.566;6.994;2024-01-06T11:44:28;100439.06;;;1.78;100.00
48553;BME280;34335;51.566;6.994;2024-01-06T11:46:56;100439.84;;;1.75;100.00
48553;BME280;34335;51.566;6.994;2024-01-06T11:49:22;100438.91;;;1.18;100.00
48553;BME280;34335;51.566;6.994;2024-01-06T11:51:51;100434.03;;;1.53;100.00
48553;BME280;34335;51.566;6.994;2024-01-06T11:54:16;100429.72;;;1.80;100.00
48553;BME280;34335;51.566;6.994;2024-01-06T11:56:41;100428.75;;;1.76;100.00
48553;BME280;34335;51.566;6.994;2024-01-06T11:59:07;100428.94;;;1.82;100.00
48553;BME280;34335;51.566;6.994;2024-01-06T12:01:38;100441.38;;;1.70;100.00
48553;BME280;34335;51.566;6.994;2024-01-06T12:04:05;100438.72;;;1.67;100.00
48553;BME280;34335;51.566;6.994;2024-01-06T12:06:31;100451.94;;;1.52;100.00
48553;BME280;34335;51.566;6.994;2024-01-06T12:09:12;100435.91;;;1.59;100.00
48553;BME280;34335;51.566;6.994;2024-01-06T12:11:41;100445.50;;;1.65;100.00
48553;BME280;34335;51.566;6.994;2024-01-06T12:14:06;100458.38;;;1.39;100.00
48553;BME280;34335;51.566;6.994;2024-01-06T12:16:32;100456.84;;;1.46;100.00
48553;BME280;34335;51.566;6.994;2024-01-06T12:18:58;100448.34;;;1.74;100.00
48553;BME280;34335;51.566;6.994;2024-01-06T12:21:28;100459.94;;;1.63;100.00
48553;BME280;34335;51.566;6.994;2024-01-06T12:23:54;100462.38;;;1.58;100.00
48553;BME280;34335;51.566;6.994;2024-01-06T12:26:19;100454.00;;;1.64;100.00
48553;BME280;34335;51.566;6.994;2024-01-06T12:28:45;100469.50;;;1.41;100.00
48553;BME280;34335;51.566;6.994;2024-01-06T12:31:11;100478.47;;;1.27;100.00
48553;BME280;34335;51.566;6.994;2024-01-06T12:33:39;100472.59;;;1.31;100.00
48553;BME280;34335;51.566;6.994;2024-01-06T12:36:06;100474.41;;;1.33;100.00
48553;BME280;34335;51.566;6.994;2024-01-06T12:38:34;100482.69;;;1.26;100.00
48553;BME280;34335;51.566;6.994;2024-01-06T12:40:59;100477.06;;;1.11;100.00
48553;BME280;34335;51.566;6.994;2024-01-06T12:43:25;100475.78;;;0.98;100.00
48553;BME280;34335;51.566;6.994;2024-01-06T12:45:50;100479.91;;;1.18;100.00
48553;BME280;34335;51.566;6.994;2024-01-06T12:48:18;100477.84;;;1.08;100.00